createdAt,value
2018-06-13T00:01:32.603Z,17.38
2018-06-13T00:02:32.504Z,17.45
2018-06-13T00:04:25.277Z,17.36
2018-06-13T00:05:25.217Z,17.35
2018-06-13T00:07:17.991Z,17.36
2018-06-13T00:08:17.921Z,17.32
2018-06-13T00:10:10.690Z,17.30
2018-06-13T00:11:10.629Z,17.25
2018-06-13T00:13:03.405Z,17.27
2018-06-13T00:14:03.330Z,17.22
2018-06-13T00:15:56.112Z,17.20
2018-06-13T00:16:56.043Z,17.18
2018-06-13T00:18:48.806Z,17.27
2018-06-13T00:19:48.741Z,17.22
2018-06-13T00:21:41.519Z,17.25
2018-06-13T00:22:41.447Z,17.28
2018-06-13T00:24:34.212Z,17.42
2018-06-13T00:25:34.179Z,17.43
2018-06-13T00:27:26.934Z,17.38
2018-06-13T00:28:26.858Z,17.39
2018-06-13T00:30:19.613Z,17.39
2018-06-13T00:31:19.552Z,17.36
2018-06-13T00:33:12.332Z,17.30
2018-06-13T00:34:12.258Z,17.25
2018-06-13T00:36:05.048Z,17.18
2018-06-13T00:37:04.989Z,17.27
2018-06-13T00:38:57.808Z,17.21
2018-06-13T00:39:57.737Z,17.25
2018-06-13T00:41:50.530Z,17.10
2018-06-13T00:42:50.450Z,17.17
2018-06-13T00:44:43.242Z,17.12
2018-06-13T00:45:43.176Z,17.14
2018-06-13T00:47:35.955Z,17.00
2018-06-13T00:48:35.893Z,16.99
2018-06-13T00:50:28.663Z,17.06
2018-06-13T00:51:28.603Z,16.96
2018-06-13T00:53:21.382Z,16.92
2018-06-13T00:54:21.306Z,16.91
2018-06-13T00:56:14.118Z,16.96
2018-06-13T00:57:14.037Z,16.91
2018-06-13T00:59:06.788Z,16.99
2018-06-13T01:00:06.715Z,17.02
2018-06-13T01:01:59.495Z,17.03
2018-06-13T01:02:59.422Z,17.10
2018-06-13T01:04:52.186Z,17.09
2018-06-13T01:05:52.129Z,17.12
2018-06-13T01:07:44.911Z,17.14
2018-06-13T01:08:44.835Z,17.15
2018-06-13T01:10:37.606Z,17.09
2018-06-13T01:11:37.543Z,17.03
2018-06-13T01:13:30.342Z,16.99
2018-06-13T01:14:30.278Z,16.87
2018-06-13T01:16:23.067Z,16.87
2018-06-13T01:17:23.010Z,16.72
2018-06-13T01:19:15.795Z,16.67
2018-06-13T01:20:15.716Z,16.67
2018-06-13T01:22:08.489Z,16.75
2018-06-13T01:23:08.423Z,16.82
2018-06-13T01:25:01.184Z,16.84
2018-06-13T01:26:01.124Z,16.87
2018-06-13T01:27:53.911Z,16.73
2018-06-13T01:28:53.833Z,16.78
2018-06-13T01:30:46.604Z,16.85
2018-06-13T01:31:46.538Z,16.67
2018-06-13T01:33:39.319Z,16.70
2018-06-13T01:34:39.244Z,16.73
2018-06-13T01:36:32.011Z,16.82
2018-06-13T01:37:31.949Z,16.80
2018-06-13T01:39:24.750Z,16.72
2018-06-13T01:40:24.669Z,16.72
2018-06-13T01:42:17.432Z,16.69
2018-06-13T01:43:17.426Z,16.63
2018-06-13T01:45:10.167Z,16.66
2018-06-13T01:46:10.103Z,16.62
2018-06-13T01:48:02.886Z,16.63
2018-06-13T01:49:02.795Z,16.63
2018-06-13T01:50:55.561Z,16.62
2018-06-13T01:51:55.503Z,16.62
2018-06-13T01:53:48.285Z,16.54
2018-06-13T01:54:48.208Z,16.54
2018-06-13T01:56:40.982Z,16.42
2018-06-13T01:57:40.914Z,16.48
2018-06-13T01:59:33.694Z,16.40
2018-06-13T02:00:33.618Z,16.45
2018-06-13T02:02:26.388Z,16.45
2018-06-13T02:03:26.327Z,16.48
2018-06-13T02:05:19.105Z,16.51
2018-06-13T02:06:19.032Z,16.45
2018-06-13T02:08:11.809Z,16.50
2018-06-13T02:09:11.735Z,16.48
2018-06-13T02:11:04.509Z,16.57
2018-06-13T02:12:04.440Z,16.51
2018-06-13T02:13:57.219Z,16.50
2018-06-13T02:14:57.157Z,16.48
2018-06-13T02:16:49.919Z,16.44
2018-06-13T02:17:49.852Z,16.42
2018-06-13T02:19:42.634Z,16.41
2018-06-13T02:20:42.565Z,16.30
2018-06-13T02:22:35.334Z,16.30
2018-06-13T02:23:35.278Z,16.22
2018-06-13T02:25:28.044Z,16.33
2018-06-13T02:26:27.974Z,16.33
2018-06-13T02:28:20.749Z,16.40
2018-06-13T02:29:20.700Z,16.41
2018-06-13T02:31:13.468Z,16.27
2018-06-13T02:32:13.391Z,16.33
2018-06-13T02:34:06.164Z,16.25
2018-06-13T02:35:06.091Z,16.25
2018-06-13T02:36:58.864Z,16.18
2018-06-13T02:37:58.800Z,16.14
2018-06-13T02:39:51.575Z,16.18
2018-06-13T02:40:51.502Z,16.22
2018-06-13T02:42:44.271Z,16.01
2018-06-13T02:43:44.207Z,16.03
2018-06-13T02:45:36.985Z,16.01
2018-06-13T02:46:36.907Z,16.04
2018-06-13T02:48:29.681Z,16.07
2018-06-13T02:49:29.611Z,15.96
2018-06-13T02:51:22.393Z,16.03
2018-06-13T02:52:22.319Z,15.98
2018-06-13T02:54:15.097Z,15.92
2018-06-13T02:55:15.014Z,15.99
2018-06-13T02:57:07.798Z,16.08
2018-06-13T02:58:07.738Z,16.04
2018-06-13T03:00:00.580Z,16.11
2018-06-13T03:01:00.470Z,16.17
2018-06-13T03:02:53.204Z,16.11
2018-06-13T03:03:53.142Z,16.10
2018-06-13T03:05:45.920Z,16.25
2018-06-13T03:06:45.843Z,16.16
2018-06-13T03:08:38.616Z,16.17
2018-06-13T03:09:38.564Z,16.18
2018-06-13T03:11:31.355Z,16.01
2018-06-13T03:12:31.285Z,16.01
2018-06-13T03:14:24.072Z,16.14
2018-06-13T03:15:23.986Z,16.13
2018-06-13T03:17:16.749Z,16.06
2018-06-13T03:18:16.683Z,16.11
2018-06-13T03:20:09.462Z,16.13
2018-06-13T03:21:09.402Z,16.25
2018-06-13T03:23:02.194Z,16.18
2018-06-13T03:24:02.106Z,16.27
2018-06-13T03:25:54.900Z,16.25
2018-06-13T03:26:54.833Z,16.18
2018-06-13T03:28:47.588Z,16.25
2018-06-13T03:29:47.524Z,16.17
2018-06-13T03:31:40.295Z,16.22
2018-06-13T03:32:40.220Z,16.16
2018-06-13T03:34:33.013Z,16.18
2018-06-13T03:35:32.940Z,16.16
2018-06-13T03:37:25.721Z,16.17
2018-06-13T03:38:25.650Z,16.18
2018-06-13T03:40:18.432Z,16.16
2018-06-13T03:41:18.370Z,16.16
2018-06-13T03:43:11.140Z,16.13
2018-06-13T03:44:11.079Z,16.27
2018-06-13T03:46:03.898Z,16.26
2018-06-13T03:47:03.788Z,16.16
2018-06-13T03:48:56.562Z,16.22
2018-06-13T03:49:56.492Z,16.27
2018-06-13T03:51:49.278Z,16.25
2018-06-13T03:52:49.208Z,16.27
2018-06-13T03:54:41.984Z,16.29
2018-06-13T03:55:41.932Z,16.32
2018-06-13T03:57:34.711Z,16.33
2018-06-13T03:58:34.641Z,16.45
2018-06-13T04:00:27.393Z,16.37
2018-06-13T04:01:27.328Z,16.34
2018-06-13T04:03:20.111Z,16.32
2018-06-13T04:04:20.039Z,16.34
2018-06-13T04:06:12.843Z,16.23
2018-06-13T04:07:12.748Z,16.22
2018-06-13T04:09:05.523Z,16.27
2018-06-13T04:10:05.453Z,16.22
2018-06-13T04:11:58.230Z,16.29
2018-06-13T04:12:58.152Z,16.32
2018-06-13T04:14:50.945Z,16.40
2018-06-13T04:15:50.877Z,16.47
2018-06-13T04:17:43.695Z,16.45
2018-06-13T04:18:43.612Z,16.44
2018-06-13T04:20:36.413Z,16.52
2018-06-13T04:21:36.348Z,16.44
2018-06-13T04:23:29.121Z,16.40
2018-06-13T04:24:29.050Z,16.45
2018-06-13T04:26:21.841Z,16.45
2018-06-13T04:27:21.767Z,16.45
2018-06-13T04:29:14.554Z,16.51
2018-06-13T04:30:14.496Z,16.44
2018-06-13T04:32:07.292Z,16.47
2018-06-13T04:33:07.218Z,16.54
2018-06-13T04:34:59.995Z,16.42
2018-06-13T04:35:59.924Z,16.47
2018-06-13T04:37:52.737Z,16.59
2018-06-13T04:38:52.639Z,16.52
2018-06-13T04:40:45.418Z,16.65
2018-06-13T04:41:45.359Z,16.65
2018-06-13T04:43:38.139Z,16.67
2018-06-13T04:44:38.067Z,16.70
2018-06-13T04:46:30.849Z,16.75
2018-06-13T04:47:30.772Z,16.69
2018-06-13T04:49:23.572Z,16.72
2018-06-13T04:50:23.494Z,16.82
2018-06-13T04:52:16.285Z,16.82
2018-06-13T04:53:16.215Z,16.90
2018-06-13T04:55:08.986Z,16.99
2018-06-13T04:56:08.920Z,17.00
2018-06-13T04:58:01.717Z,17.02
2018-06-13T04:59:01.643Z,17.06
2018-06-13T05:00:54.412Z,17.03
2018-06-13T05:01:54.348Z,17.14
2018-06-13T05:03:47.141Z,17.05
2018-06-13T05:04:47.075Z,17.05
2018-06-13T05:06:39.848Z,17.14
2018-06-13T05:07:39.786Z,17.03
2018-06-13T05:09:32.618Z,16.95
2018-06-13T05:10:32.523Z,16.91
2018-06-13T05:12:25.334Z,16.77
2018-06-13T05:13:25.284Z,16.70
2018-06-13T05:15:18.008Z,16.77
2018-06-13T05:16:17.966Z,16.77
2018-06-13T05:18:10.742Z,16.65
2018-06-13T05:19:10.655Z,16.75
2018-06-13T05:21:03.465Z,16.67
2018-06-13T05:22:03.405Z,16.65
2018-06-13T05:23:56.204Z,16.66
2018-06-13T05:24:56.128Z,16.73
2018-06-13T05:26:48.900Z,16.54
2018-06-13T05:27:48.841Z,16.54
2018-06-13T05:29:41.660Z,16.47
2018-06-13T05:30:41.787Z,16.52
2018-06-13T05:32:34.369Z,16.45
2018-06-13T05:33:34.311Z,16.50
2018-06-13T05:35:27.087Z,16.52
2018-06-13T05:36:27.016Z,16.50
2018-06-13T05:38:19.813Z,16.48
2018-06-13T05:39:19.724Z,16.40
2018-06-13T05:41:12.487Z,16.48
2018-06-13T05:42:12.485Z,16.45
2018-06-13T05:44:05.212Z,16.51
2018-06-13T05:45:05.143Z,16.50
2018-06-13T05:46:57.955Z,16.65
2018-06-13T05:47:57.883Z,16.59
2018-06-13T05:49:50.702Z,16.67
2018-06-13T05:50:50.613Z,16.66
2018-06-13T05:52:43.380Z,16.75
2018-06-13T05:53:43.311Z,16.67
2018-06-13T05:55:36.119Z,16.67
2018-06-13T05:56:36.022Z,16.72
2018-06-13T05:58:28.790Z,16.78
2018-06-13T05:59:28.726Z,16.80
2018-06-13T06:01:21.551Z,16.88
2018-06-13T06:02:21.444Z,16.82
2018-06-13T06:04:14.222Z,16.77
2018-06-13T06:05:14.149Z,16.81
2018-06-13T06:07:06.924Z,16.62
2018-06-13T06:08:06.863Z,16.70
2018-06-13T06:09:59.675Z,16.70
2018-06-13T06:10:59.572Z,16.67
2018-06-13T06:12:52.360Z,16.69
2018-06-13T06:13:52.313Z,16.67
2018-06-13T06:15:45.079Z,16.73
2018-06-13T06:16:45.069Z,16.69
2018-06-13T06:18:37.771Z,16.69
2018-06-13T06:19:37.717Z,16.75
2018-06-13T06:21:30.512Z,16.80
2018-06-13T06:22:30.439Z,16.78
2018-06-13T06:24:23.204Z,16.99
2018-06-13T06:25:23.152Z,16.91
2018-06-13T06:27:15.940Z,17.07
2018-06-13T06:28:15.867Z,17.12
2018-06-13T06:30:08.643Z,17.33
2018-06-13T06:31:08.571Z,17.42
2018-06-13T06:33:01.340Z,17.43
2018-06-13T06:34:01.277Z,17.51
2018-06-13T06:35:54.179Z,17.63
2018-06-13T06:36:54.130Z,17.80
2018-06-13T06:38:46.881Z,17.86
2018-06-13T06:39:46.808Z,17.95
2018-06-13T06:41:39.607Z,18.13
2018-06-13T06:42:39.531Z,18.32
2018-06-13T06:44:32.316Z,18.51
2018-06-13T06:45:32.251Z,18.59
2018-06-13T06:47:25.040Z,18.69
2018-06-13T06:48:24.962Z,18.84
2018-06-13T06:50:17.741Z,18.87
2018-06-13T06:51:17.684Z,18.97
2018-06-13T06:53:10.471Z,19.09
2018-06-13T06:54:10.393Z,19.23
2018-06-13T06:56:03.187Z,19.34
2018-06-13T06:57:03.121Z,19.43
2018-06-13T06:58:55.917Z,19.78
2018-06-13T06:59:55.842Z,20.19
2018-06-13T07:01:48.637Z,20.66
2018-06-13T07:02:48.643Z,20.69
2018-06-13T07:04:41.324Z,20.27
2018-06-13T07:05:41.262Z,20.40
2018-06-13T07:07:34.052Z,20.56
2018-06-13T07:08:33.979Z,20.42
2018-06-13T07:10:26.765Z,20.54
2018-06-13T07:11:26.687Z,20.51
2018-06-13T07:13:19.470Z,20.04
2018-06-13T07:14:19.400Z,19.70
2018-06-13T07:16:12.169Z,19.64
2018-06-13T07:17:12.106Z,19.86
2018-06-13T07:19:04.939Z,20.87
2018-06-13T07:20:04.832Z,21.16
2018-06-13T07:21:57.651Z,22.45
2018-06-13T07:22:57.579Z,22.70
2018-06-13T07:24:50.422Z,23.31
2018-06-13T07:25:50.283Z,23.72
2018-06-13T07:27:43.160Z,25.45
2018-06-13T07:28:43.004Z,26.28
2018-06-13T07:30:35.774Z,25.71
2018-06-13T07:31:35.724Z,25.22
2018-06-13T07:33:28.559Z,23.96
2018-06-13T07:34:28.450Z,23.68
2018-06-13T07:36:21.564Z,22.33
2018-06-13T07:37:21.518Z,21.79
2018-06-13T07:39:14.287Z,21.16
2018-06-13T07:40:14.220Z,21.66
2018-06-13T07:42:07.024Z,21.75
2018-06-13T07:43:06.949Z,21.79
2018-06-13T07:44:59.730Z,22.12
2018-06-13T07:45:59.735Z,22.69
2018-06-13T07:47:52.465Z,22.09
2018-06-13T07:48:52.396Z,21.66
2018-06-13T07:50:45.192Z,20.79
2018-06-13T07:51:45.125Z,20.54
2018-06-13T07:53:37.927Z,20.00
2018-06-13T07:54:37.851Z,20.00
2018-06-13T07:56:30.632Z,20.83
2018-06-13T07:57:30.574Z,20.66
2018-06-13T07:59:23.369Z,21.99
2018-06-13T08:00:23.300Z,23.16
2018-06-13T08:02:16.122Z,24.75
2018-06-13T08:03:16.015Z,25.64
2018-06-13T08:05:08.812Z,26.81
2018-06-13T08:06:08.747Z,27.11
2018-06-13T08:08:01.578Z,26.09
2018-06-13T08:09:01.508Z,25.14
2018-06-13T08:10:54.282Z,23.68
2018-06-13T08:11:54.227Z,22.76
2018-06-13T08:13:47.040Z,21.89
2018-06-13T08:14:46.969Z,21.68
2018-06-13T08:16:39.759Z,21.01
2018-06-13T08:17:39.706Z,20.78
2018-06-13T08:19:32.501Z,20.30
2018-06-13T08:20:32.430Z,20.00
2018-06-13T08:22:25.207Z,19.92
2018-06-13T08:23:25.152Z,19.82
2018-06-13T08:25:17.941Z,19.68
2018-06-13T08:26:17.991Z,19.76
2018-06-13T08:28:10.660Z,19.72
2018-06-13T08:29:10.585Z,19.79
2018-06-13T08:31:03.385Z,19.92
2018-06-13T08:32:03.321Z,20.17
2018-06-13T08:33:56.099Z,20.76
2018-06-13T08:34:56.033Z,20.72
2018-06-13T08:36:48.811Z,20.76
2018-06-13T08:37:48.752Z,20.87
2018-06-13T08:39:41.551Z,21.15
2018-06-13T08:40:41.479Z,21.21
2018-06-13T08:42:34.259Z,21.71
2018-06-13T08:43:34.219Z,22.01
2018-06-13T08:45:26.986Z,22.56
2018-06-13T08:46:26.911Z,22.67
2018-06-13T08:48:19.690Z,22.81
2018-06-13T08:49:19.624Z,23.09
2018-06-13T08:51:12.412Z,23.68
2018-06-13T08:52:12.342Z,24.14
2018-06-13T08:54:05.153Z,23.71
2018-06-13T08:55:05.068Z,23.63
2018-06-13T08:56:57.844Z,22.88
2018-06-13T08:57:57.787Z,22.39
2018-06-13T08:59:50.566Z,21.15
2018-06-13T09:00:50.500Z,20.76
2018-06-13T09:02:43.301Z,20.00
2018-06-13T09:03:43.237Z,19.80
2018-06-13T09:05:36.023Z,19.61
2018-06-13T09:06:35.951Z,19.50
2018-06-13T09:08:28.732Z,19.40
2018-06-13T09:09:28.665Z,19.21
2018-06-13T09:11:21.448Z,19.06
2018-06-13T09:12:21.375Z,19.13
2018-06-13T09:14:14.189Z,19.09
2018-06-13T09:15:14.114Z,19.17
2018-06-13T09:17:06.906Z,19.15
2018-06-13T09:18:06.835Z,19.23
2018-06-13T09:19:59.676Z,19.38
2018-06-13T09:20:59.598Z,19.35
2018-06-13T09:22:52.388Z,19.45
2018-06-13T09:23:52.318Z,19.40
2018-06-13T09:25:45.129Z,19.53
2018-06-13T09:26:45.036Z,19.65
2018-06-13T09:28:37.826Z,19.76
2018-06-13T09:29:37.780Z,19.75
2018-06-13T09:31:30.705Z,19.87
2018-06-13T09:32:30.616Z,20.01
2018-06-13T09:34:23.430Z,20.12
2018-06-13T09:35:23.364Z,20.12
2018-06-13T09:37:16.238Z,19.94
2018-06-13T09:38:16.077Z,19.94
2018-06-13T09:40:08.877Z,19.64
2018-06-13T09:41:08.799Z,19.61
2018-06-13T09:43:01.573Z,19.67
2018-06-13T09:44:01.515Z,19.75
2018-06-13T09:46:03.271Z,19.90
2018-06-13T09:46:54.220Z,19.95
2018-06-13T09:48:47.009Z,19.87
2018-06-13T09:49:47.043Z,20.00
2018-06-13T09:51:39.747Z,20.02
2018-06-13T09:52:39.751Z,20.17
2018-06-13T09:54:32.459Z,20.19
2018-06-13T09:55:32.392Z,20.17
2018-06-13T09:57:25.197Z,20.17
2018-06-13T09:58:25.124Z,20.19
2018-06-13T10:00:17.935Z,20.33
2018-06-13T10:01:17.863Z,20.51
2018-06-13T10:03:10.640Z,20.48
2018-06-13T10:04:10.588Z,20.57
2018-06-13T10:06:03.368Z,20.35
2018-06-13T10:07:03.288Z,20.19
2018-06-13T10:08:56.093Z,20.34
2018-06-13T10:09:56.049Z,20.44
2018-06-13T10:11:48.845Z,20.19
2018-06-13T10:12:48.764Z,20.22
2018-06-13T10:14:41.588Z,20.44
2018-06-13T10:15:41.540Z,20.54
2018-06-13T10:17:34.302Z,20.58
2018-06-13T10:18:34.285Z,20.61
2018-06-13T10:20:27.046Z,20.56
2018-06-13T10:21:26.964Z,20.54
2018-06-13T10:23:19.756Z,20.51
2018-06-13T10:24:19.679Z,20.38
2018-06-13T10:26:12.479Z,20.20
2018-06-13T10:27:12.398Z,20.19
2018-06-13T10:29:05.276Z,20.27
2018-06-13T10:30:05.184Z,20.37
2018-06-13T10:31:58.007Z,20.66
2018-06-13T10:32:57.916Z,20.69
2018-06-13T10:34:50.701Z,20.81
2018-06-13T10:35:50.636Z,20.93
2018-06-13T10:37:43.431Z,21.05
2018-06-13T10:38:43.358Z,20.97
2018-06-13T10:40:36.143Z,20.78
2018-06-13T10:41:36.074Z,20.64
2018-06-13T10:43:28.863Z,20.46
2018-06-13T10:44:28.788Z,20.34
2018-06-13T10:46:21.611Z,20.13
2018-06-13T10:47:21.522Z,20.16
2018-06-13T10:49:14.347Z,20.16
2018-06-13T10:50:14.265Z,20.13
2018-06-13T10:52:07.038Z,19.98
2018-06-13T10:53:06.965Z,19.94
2018-06-13T10:54:59.760Z,20.02
2018-06-13T10:55:59.689Z,19.89
2018-06-13T10:57:52.556Z,20.08
2018-06-13T10:58:52.489Z,19.95
2018-06-13T11:00:45.331Z,19.92
2018-06-13T11:01:45.276Z,19.90
2018-06-13T11:03:38.060Z,19.76
2018-06-13T11:04:38.050Z,19.60
2018-06-13T11:06:30.770Z,19.32
2018-06-13T11:07:30.715Z,19.20
2018-06-13T11:09:23.525Z,18.91
2018-06-13T11:10:23.449Z,18.89
2018-06-13T11:12:16.243Z,18.69
2018-06-13T11:13:16.180Z,18.65
2018-06-13T11:15:09.041Z,18.46
2018-06-13T11:16:08.964Z,18.56
2018-06-13T11:18:01.766Z,18.53
2018-06-13T11:19:01.684Z,18.50
2018-06-13T11:20:54.465Z,18.54
2018-06-13T11:21:54.403Z,18.69
2018-06-13T11:23:47.198Z,18.82
2018-06-13T11:24:47.150Z,18.79
2018-06-13T11:26:39.919Z,18.82
2018-06-13T11:27:39.875Z,18.84
2018-06-13T11:29:32.649Z,18.87
2018-06-13T11:30:32.568Z,18.93
2018-06-13T11:32:25.338Z,19.09
2018-06-13T11:33:25.345Z,19.01
2018-06-13T11:35:18.098Z,19.23
2018-06-13T11:36:17.983Z,19.28
2018-06-13T11:38:10.768Z,19.38
2018-06-13T11:39:10.712Z,19.32
2018-06-13T11:41:03.512Z,19.42
2018-06-13T11:42:03.429Z,19.42
2018-06-13T11:43:56.241Z,19.34
2018-06-13T11:44:56.167Z,19.27
2018-06-13T11:46:49.002Z,19.15
2018-06-13T11:47:48.927Z,19.16
2018-06-13T11:49:41.728Z,19.09
2018-06-13T11:50:41.647Z,19.06
2018-06-13T11:52:34.528Z,19.15
2018-06-13T11:53:34.389Z,19.06
2018-06-13T11:55:27.177Z,19.06
2018-06-13T11:56:27.104Z,19.01
2018-06-13T11:58:19.907Z,18.93
2018-06-13T11:59:19.832Z,18.94
2018-06-13T12:01:12.621Z,18.89
2018-06-13T12:02:12.543Z,18.94
2018-06-13T12:04:05.481Z,18.94
2018-06-13T12:05:05.290Z,19.07
2018-06-13T12:06:58.100Z,19.01
2018-06-13T12:07:58.014Z,19.09
2018-06-13T12:09:50.860Z,19.07
2018-06-13T12:10:50.790Z,19.06
2018-06-13T12:12:43.680Z,18.93
2018-06-13T12:13:43.622Z,19.05
2018-06-13T12:15:36.409Z,18.93
2018-06-13T12:16:36.332Z,18.74
2018-06-13T12:18:29.126Z,18.78
2018-06-13T12:19:29.066Z,18.72
2018-06-13T12:21:21.876Z,18.59
2018-06-13T12:22:21.812Z,18.66
2018-06-13T12:24:14.576Z,18.62
2018-06-13T12:25:14.503Z,18.66
2018-06-13T12:27:07.330Z,18.62
2018-06-13T12:28:07.252Z,18.68
2018-06-13T12:30:00.074Z,18.75
2018-06-13T12:30:59.963Z,18.75
2018-06-13T12:32:52.820Z,18.72
2018-06-13T12:33:52.743Z,18.79
2018-06-13T12:35:45.528Z,18.76
2018-06-13T12:36:45.458Z,18.83
2018-06-13T12:38:38.237Z,19.05
2018-06-13T12:39:38.224Z,19.21
2018-06-13T12:41:30.978Z,19.42
2018-06-13T12:42:30.900Z,19.53
2018-06-13T12:44:23.706Z,19.55
2018-06-13T12:45:23.677Z,19.50
2018-06-13T12:47:16.494Z,19.40
2018-06-13T12:48:16.410Z,19.42
2018-06-13T12:50:09.190Z,19.38
2018-06-13T12:51:09.120Z,19.39
2018-06-13T12:53:01.921Z,19.34
2018-06-13T12:54:02.007Z,19.40
2018-06-13T12:55:54.668Z,19.38
2018-06-13T12:56:54.545Z,19.49
2018-06-13T12:58:47.441Z,19.34
2018-06-13T12:59:47.257Z,19.24
2018-06-13T13:01:40.091Z,19.24
2018-06-13T13:02:40.013Z,19.13
2018-06-13T13:04:32.839Z,19.16
2018-06-13T13:05:32.715Z,19.15
2018-06-13T13:07:25.508Z,19.34
2018-06-13T13:08:25.422Z,19.43
2018-06-13T13:10:18.240Z,19.68
2018-06-13T13:11:18.179Z,19.75
2018-06-13T13:13:11.017Z,19.62
2018-06-13T13:14:10.889Z,19.64
2018-06-13T13:16:04.460Z,19.61
2018-06-13T13:17:04.423Z,19.49
2018-06-13T13:18:57.151Z,19.30
2018-06-13T13:19:57.067Z,19.12
2018-06-13T13:21:49.852Z,18.93
2018-06-13T13:22:49.769Z,18.79
2018-06-13T13:24:42.554Z,18.69
2018-06-13T13:25:42.490Z,18.69
2018-06-13T13:27:35.348Z,18.60
2018-06-13T13:28:35.273Z,18.66
2018-06-13T13:30:28.086Z,18.62
2018-06-13T13:31:27.996Z,18.59
2018-06-13T13:33:20.794Z,18.62
2018-06-13T13:34:20.720Z,18.54
2018-06-13T13:36:13.513Z,18.64
2018-06-13T13:37:13.434Z,18.66
2018-06-13T13:39:06.233Z,18.71
2018-06-13T13:40:06.177Z,18.75
2018-06-13T13:41:58.939Z,18.84
2018-06-13T13:42:58.887Z,18.79
2018-06-13T13:44:52.237Z,18.79
2018-06-13T13:45:52.162Z,18.75
2018-06-13T13:47:44.942Z,18.69
2018-06-13T13:48:44.869Z,18.69
2018-06-13T13:50:37.627Z,18.50
2018-06-13T13:51:37.594Z,18.50
2018-06-13T13:53:30.445Z,18.32
2018-06-13T13:54:30.407Z,18.35
2018-06-13T13:56:23.160Z,18.36
2018-06-13T13:57:23.119Z,18.36
2018-06-13T13:59:16.126Z,18.44
2018-06-13T14:00:15.976Z,18.50
2018-06-13T14:02:08.737Z,18.54
2018-06-13T14:03:08.647Z,18.60
2018-06-13T14:05:01.446Z,18.60
2018-06-13T14:06:01.375Z,18.60
2018-06-13T14:07:54.162Z,18.50
2018-06-13T14:08:54.093Z,18.66
2018-06-13T14:10:46.887Z,18.69
2018-06-13T14:11:46.835Z,18.68
2018-06-13T14:13:39.653Z,18.76
2018-06-13T14:14:39.568Z,18.90
2018-06-13T14:16:32.371Z,18.90
2018-06-13T14:17:32.296Z,18.91
2018-06-13T14:19:25.123Z,18.93
2018-06-13T14:20:25.086Z,18.99
2018-06-13T14:22:17.914Z,18.94
2018-06-13T14:23:17.775Z,19.09
2018-06-13T14:25:10.574Z,19.01
2018-06-13T14:26:10.492Z,19.17
2018-06-13T14:28:03.283Z,19.25
2018-06-13T14:29:03.241Z,19.31
2018-06-13T14:30:55.990Z,19.50
2018-06-13T14:31:55.925Z,19.55
2018-06-13T14:33:48.800Z,19.53
2018-06-13T14:34:48.639Z,19.61
2018-06-13T14:36:41.461Z,19.50
2018-06-13T14:37:41.390Z,19.62
2018-06-13T14:39:34.220Z,19.57
2018-06-13T14:40:34.139Z,19.65
2018-06-13T14:42:26.953Z,19.34
2018-06-13T14:43:26.888Z,19.20
2018-06-13T14:45:19.739Z,19.16
2018-06-13T14:46:19.671Z,19.09
2018-06-13T14:48:12.471Z,19.05
2018-06-13T14:49:12.377Z,19.20
2018-06-13T14:51:05.169Z,19.27
2018-06-13T14:52:05.105Z,19.17
2018-06-13T14:53:57.900Z,19.16
2018-06-13T14:54:57.828Z,19.07
2018-06-13T14:56:50.798Z,18.84
2018-06-13T14:57:50.579Z,18.71
2018-06-13T14:59:43.337Z,18.53
2018-06-13T15:00:43.258Z,18.53
2018-06-13T15:02:36.029Z,18.49
2018-06-13T15:03:35.970Z,18.49
2018-06-13T15:05:28.795Z,18.60
2018-06-13T15:06:28.690Z,18.54
2018-06-13T15:08:21.515Z,18.71
2018-06-13T15:09:21.438Z,18.75
2018-06-13T15:11:14.199Z,18.72
2018-06-13T15:12:14.273Z,18.65
2018-06-13T15:14:06.988Z,18.69
2018-06-13T15:15:06.854Z,18.71
2018-06-13T15:16:59.653Z,18.72
2018-06-13T15:17:59.577Z,18.71
2018-06-13T15:19:52.375Z,18.65
2018-06-13T15:20:52.298Z,18.66
2018-06-13T15:22:45.077Z,18.68
2018-06-13T15:23:45.024Z,18.72
2018-06-13T15:25:37.832Z,18.72
2018-06-13T15:26:37.756Z,18.54
2018-06-13T15:28:30.544Z,18.49
2018-06-13T15:29:30.463Z,18.53
2018-06-13T15:31:23.419Z,18.53
2018-06-13T15:32:23.193Z,18.66
2018-06-13T15:34:16.041Z,18.68
2018-06-13T15:35:15.940Z,18.66
2018-06-13T15:37:08.725Z,18.62
2018-06-13T15:38:08.643Z,18.72
2018-06-13T15:40:01.773Z,18.71
2018-06-13T15:41:01.446Z,18.68
2018-06-13T15:42:54.259Z,18.89
2018-06-13T15:43:54.203Z,18.93
2018-06-13T15:45:46.988Z,18.94
2018-06-13T15:46:46.911Z,18.91
2018-06-13T15:48:39.871Z,19.01
2018-06-13T15:49:39.757Z,18.93
2018-06-13T15:51:32.558Z,18.97
2018-06-13T15:52:32.483Z,18.90
2018-06-13T15:54:25.247Z,18.75
2018-06-13T15:55:25.186Z,18.84
2018-06-13T15:57:18.042Z,18.79
2018-06-13T15:58:17.982Z,18.83
2018-06-13T16:00:10.776Z,18.69
2018-06-13T16:01:10.662Z,18.66
2018-06-13T16:03:03.623Z,18.71
2018-06-13T16:04:03.399Z,18.83
2018-06-13T16:05:56.342Z,18.79
2018-06-13T16:06:56.319Z,18.69
2018-06-13T16:08:49.171Z,18.78
2018-06-13T16:09:49.031Z,18.78
2018-06-13T16:11:41.928Z,18.87
2018-06-13T16:12:41.852Z,18.79
2018-06-13T16:14:34.643Z,18.76
2018-06-13T16:15:34.575Z,18.86
2018-06-13T16:17:27.457Z,18.84
2018-06-13T16:18:27.320Z,18.89
2018-06-13T16:20:20.092Z,18.91
2018-06-13T16:21:20.033Z,18.79
2018-06-13T16:23:12.859Z,18.79
2018-06-13T16:24:12.769Z,18.89
2018-06-13T16:26:05.702Z,18.74
2018-06-13T16:27:05.612Z,18.79
2018-06-13T16:28:58.376Z,18.69
2018-06-13T16:29:58.324Z,18.66
2018-06-13T16:31:51.107Z,18.60
2018-06-13T16:32:51.074Z,18.56
2018-06-13T16:34:43.875Z,18.62
2018-06-13T16:35:43.838Z,18.65
2018-06-13T16:37:36.592Z,18.57
2018-06-13T16:38:36.502Z,18.69
2018-06-13T16:40:29.482Z,18.54
2018-06-13T16:41:29.418Z,18.59
2018-06-13T16:43:22.254Z,18.66
2018-06-13T16:44:22.158Z,18.64
2018-06-13T16:46:14.945Z,18.62
2018-06-13T16:47:14.882Z,18.64
2018-06-13T16:49:07.728Z,18.54
2018-06-13T16:50:07.618Z,18.46
2018-06-13T16:52:00.434Z,18.49
2018-06-13T16:53:01.394Z,18.50
2018-06-13T16:54:53.176Z,18.56
2018-06-13T16:55:53.096Z,18.57
2018-06-13T16:57:45.895Z,18.47
2018-06-13T16:58:45.888Z,18.50
2018-06-13T17:00:38.618Z,18.44
2018-06-13T17:01:38.533Z,18.54
2018-06-13T17:03:31.359Z,18.41
2018-06-13T17:04:31.280Z,18.39
2018-06-13T17:06:24.066Z,18.38
2018-06-13T17:07:24.009Z,18.32
2018-06-13T17:09:16.830Z,18.28
2018-06-13T17:10:16.748Z,18.32
2018-06-13T17:12:09.569Z,18.29
2018-06-13T17:13:09.466Z,18.28
2018-06-13T17:15:02.248Z,18.11
2018-06-13T17:16:02.180Z,18.09
2018-06-13T17:17:55.105Z,18.14
2018-06-13T17:18:54.996Z,18.16
2018-06-13T17:20:47.773Z,18.20
2018-06-13T17:21:47.792Z,18.19
2018-06-13T17:23:40.497Z,18.28
2018-06-13T17:24:40.433Z,18.32
2018-06-13T17:26:33.228Z,18.34
2018-06-13T17:27:33.217Z,18.29
2018-06-13T17:29:25.991Z,18.26
2018-06-13T17:30:25.919Z,18.20
2018-06-13T17:32:18.784Z,18.17
2018-06-13T17:33:18.646Z,18.19
2018-06-13T17:35:11.427Z,18.13
2018-06-13T17:36:11.345Z,18.13
2018-06-13T17:38:04.132Z,18.11
2018-06-13T17:39:04.104Z,18.13
2018-06-13T17:40:56.834Z,18.09
2018-06-13T17:41:56.825Z,17.98
2018-06-13T17:43:49.872Z,17.99
2018-06-13T17:44:49.797Z,18.02
2018-06-13T17:46:42.748Z,18.02
2018-06-13T17:49:35.456Z,17.89
2018-06-13T17:50:35.389Z,18.01
2018-06-13T17:52:28.199Z,17.92
2018-06-13T17:53:28.183Z,17.89
2018-06-13T17:55:21.087Z,17.91
2018-06-13T17:56:20.876Z,17.99
2018-06-13T17:58:13.677Z,18.01
2018-06-13T17:59:13.595Z,18.02
2018-06-13T18:01:06.394Z,18.01
2018-06-13T18:02:06.293Z,18.02
2018-06-13T18:03:59.190Z,17.95
2018-06-13T18:04:59.062Z,17.95
2018-06-13T18:06:51.894Z,17.94
2018-06-13T18:07:51.797Z,17.87
2018-06-13T18:09:44.630Z,17.84
2018-06-13T18:10:44.554Z,17.81
2018-06-13T18:12:37.375Z,17.76
2018-06-13T18:13:37.308Z,17.81
2018-06-13T18:15:30.106Z,17.81
2018-06-13T18:16:30.110Z,17.84
2018-06-13T18:18:22.783Z,17.77
2018-06-13T18:19:22.730Z,17.87
2018-06-13T18:21:15.570Z,17.76
2018-06-13T18:22:15.489Z,17.76
2018-06-13T18:24:08.288Z,17.70
2018-06-13T18:25:08.335Z,17.71
2018-06-13T18:27:00.971Z,17.76
2018-06-13T18:28:00.902Z,17.74
2018-06-13T18:29:53.811Z,17.74
2018-06-13T18:30:53.746Z,17.71
2018-06-13T18:32:46.581Z,17.71
2018-06-13T18:33:46.542Z,17.62